KMCI/MCI METAR and TAF weather

Enter ICAO airport designator
Station Type Date Time Source
KMCI METAR 2020/08/05 15:53 UTC NOAA

KMCI 051553Z 16010KT 10SM SCT110 BKN250 22/14 A3011 RMK AO2 SLP191 T02170144


Station Type Date Time Source
KMCI Decoded METAR 2020/08/05 15:53 UTC NOAA

KANSAS CITY INTERNATIONAL AIRPORT, MO, United States (KMCI) 39-18N 94-44W 320M
Aug 05, 2020 - 11:53 AM EDT / 2020.08.05 1553 UTC
Wind: from the SSE (160 degrees) at 12 MPH (10 KT):0
Visibility: 10 mile(s):0
Sky conditions: mostly cloudy
Temperature: 71.1 F (21.7 C)
Dew Point: 57.9 F (14.4 C)
Relative Humidity: 63%
Pressure (altimeter): 30.11 in. Hg (1019 hPa)
ob: KMCI 051553Z 16010KT 10SM SCT110 BKN250 22/14 A3011 RMK AO2 SLP191 T02170144
cycle: 16

Station Type Date Time Source
KMCI TAF 2020/08/05 12:22 UTC NOAA

TAF KMCI 051120Z 0512/0612 15005KT P6SM SCT070
FM051700 16009KT P6SM SCT040
FM060200 15006KT P6SM SKC

Example: see airport list